sensor_id;sensor_type;location;lat;lon;timestamp;P1;durP1;ratioP1;P2;durP2;ratioP2
55069;SDS011;40967;52.070;8.596;2024-02-04T00:00:46;11.05;;;7.00;;
55069;SDS011;40967;52.070;8.596;2024-02-04T00:03:15;11.03;;;6.97;;
55069;SDS011;40967;52.070;8.596;2024-02-04T00:05:42;12.52;;;7.95;;
55069;SDS011;40967;52.070;8.596;2024-02-04T00:08:10;11.88;;;7.13;;
55069;SDS011;40967;52.070;8.596;2024-02-04T00:10:42;10.20;;;7.00;;
55069;SDS011;40967;52.070;8.596;2024-02-04T00:13:09;13.15;;;7.80;;
55069;SDS011;40967;52.070;8.596;2024-02-04T00:15:39;10.38;;;6.13;;
55069;SDS011;40967;52.070;8.596;2024-02-04T00:18:23;9.15;;;5.53;;
55069;SDS011;40967;52.070;8.596;2024-02-04T00:20:50;10.50;;;6.53;;
55069;SDS011;40967;52.070;8.596;2024-02-04T00:23:17;7.63;;;4.80;;
55069;SDS011;40967;52.070;8.596;2024-02-04T00:25:45;9.65;;;5.72;;
55069;SDS011;40967;52.070;8.596;2024-02-04T00:28:12;9.45;;;5.72;;
55069;SDS011;40967;52.070;8.596;2024-02-04T00:30:39;9.17;;;5.63;;
55069;SDS011;40967;52.070;8.596;2024-02-04T00:33:05;9.60;;;5.68;;
55069;SDS011;40967;52.070;8.596;2024-02-04T00:35:32;8.18;;;5.20;;
55069;SDS011;40967;52.070;8.596;2024-02-04T00:37:58;7.67;;;4.83;;
55069;SDS011;40967;52.070;8.596;2024-02-04T00:40:28;7.97;;;4.57;;
55069;SDS011;40967;52.070;8.596;2024-02-04T00:42:56;8.27;;;4.55;;
55069;SDS011;40967;52.070;8.596;2024-02-04T00:45:22;6.68;;;4.18;;
55069;SDS011;40967;52.070;8.596;2024-02-04T00:47:49;6.97;;;3.95;;
55069;SDS011;40967;52.070;8.596;2024-02-04T00:50:15;9.18;;;5.40;;
55069;SDS011;40967;52.070;8.596;2024-02-04T00:52:42;10.07;;;5.60;;
55069;SDS011;40967;52.070;8.596;2024-02-04T00:55:09;7.35;;;4.13;;
55069;SDS011;40967;52.070;8.596;2024-02-04T00:57:35;7.97;;;4.00;;
55069;SDS011;40967;52.070;8.596;2024-02-04T01:00:04;6.70;;;3.72;;
55069;SDS011;40967;52.070;8.596;2024-02-04T01:02:31;6.57;;;3.50;;
55069;SDS011;40967;52.070;8.596;2024-02-04T01:04:57;5.85;;;3.20;;
55069;SDS011;40967;52.070;8.596;2024-02-04T01:07:24;5.10;;;2.78;;
55069;SDS011;40967;52.070;8.596;2024-02-04T01:09:51;4.32;;;2.50;;
55069;SDS011;40967;52.070;8.596;2024-02-04T01:12:17;4.40;;;2.38;;
55069;SDS011;40967;52.070;8.596;2024-02-04T01:14:44;3.60;;;2.00;;
55069;SDS011;40967;52.070;8.596;2024-02-04T01:17:12;3.55;;;2.15;;
55069;SDS011;40967;52.070;8.596;2024-02-04T01:19:38;3.28;;;1.83;;
55069;SDS011;40967;52.070;8.596;2024-02-04T01:22:05;4.40;;;2.35;;
55069;SDS011;40967;52.070;8.596;2024-02-04T01:24:31;3.58;;;2.17;;
55069;SDS011;40967;52.070;8.596;2024-02-04T01:26:58;3.03;;;1.83;;
55069;SDS011;40967;52.070;8.596;2024-02-04T01:29:25;2.95;;;1.75;;
55069;SDS011;40967;52.070;8.596;2024-02-04T01:31:51;3.20;;;1.60;;
55069;SDS011;40967;52.070;8.596;2024-02-04T01:34:21;3.50;;;1.65;;
55069;SDS011;40967;52.070;8.596;2024-02-04T01:36:48;3.23;;;1.73;;
55069;SDS011;40967;52.070;8.596;2024-02-04T01:39:14;3.53;;;1.65;;
55069;SDS011;40967;52.070;8.596;2024-02-04T01:41:41;3.20;;;1.80;;
55069;SDS011;40967;52.070;8.596;2024-02-04T01:44:10;3.53;;;1.77;;
55069;SDS011;40967;52.070;8.596;2024-02-04T01:46:36;3.80;;;1.90;;
55069;SDS011;40967;52.070;8.596;2024-02-04T01:49:03;4.15;;;2.00;;
55069;SDS011;40967;52.070;8.596;2024-02-04T01:51:35;3.70;;;1.90;;
55069;SDS011;40967;52.070;8.596;2024-02-04T01:54:02;3.95;;;2.10;;
55069;SDS011;40967;52.070;8.596;2024-02-04T01:56:30;3.33;;;1.98;;
55069;SDS011;40967;52.070;8.596;2024-02-04T01:58:59;3.00;;;1.80;;
55069;SDS011;40967;52.070;8.596;2024-02-04T02:01:26;3.95;;;2.13;;
55069;SDS011;40967;52.070;8.596;2024-02-04T02:03:52;3.83;;;2.05;;
55069;SDS011;40967;52.070;8.596;2024-02-04T02:06:19;4.15;;;2.30;;
55069;SDS011;40967;52.070;8.596;2024-02-04T02:08:47;3.83;;;2.10;;
55069;SDS011;40967;52.070;8.596;2024-02-04T02:11:17;5.70;;;3.20;;
55069;SDS011;40967;52.070;8.596;2024-02-04T02:13:47;6.00;;;3.40;;
55069;SDS011;40967;52.070;8.596;2024-02-04T02:16:20;5.70;;;3.30;;
55069;SDS011;40967;52.070;8.596;2024-02-04T02:18:50;5.10;;;3.28;;
55069;SDS011;40967;52.070;8.596;2024-02-04T02:21:30;5.18;;;3.10;;
55069;SDS011;40967;52.070;8.596;2024-02-04T02:24:13;6.50;;;3.30;;
55069;SDS011;40967;52.070;8.596;2024-02-04T02:26:46;6.75;;;3.90;;
55069;SDS011;40967;52.070;8.596;2024-02-04T02:29:13;5.20;;;3.20;;
55069;SDS011;40967;52.070;8.596;2024-02-04T02:31:40;6.97;;;4.10;;
55069;SDS011;40967;52.070;8.596;2024-02-04T02:34:08;4.70;;;2.70;;
55069;SDS011;40967;52.070;8.596;2024-02-04T02:36:38;5.80;;;3.22;;
55069;SDS011;40967;52.070;8.596;2024-02-04T02:39:12;6.28;;;3.60;;
55069;SDS011;40967;52.070;8.596;2024-02-04T02:41:41;5.95;;;3.40;;
55069;SDS011;40967;52.070;8.596;2024-02-04T02:44:10;7.68;;;4.63;;
55069;SDS011;40967;52.070;8.596;2024-02-04T02:46:38;6.35;;;3.90;;
55069;SDS011;40967;52.070;8.596;2024-02-04T02:49:08;5.97;;;3.50;;
55069;SDS011;40967;52.070;8.596;2024-02-04T02:51:36;5.47;;;3.30;;
55069;SDS011;40967;52.070;8.596;2024-02-04T02:54:02;6.35;;;4.20;;
55069;SDS011;40967;52.070;8.596;2024-02-04T02:56:29;7.15;;;4.35;;
55069;SDS011;40967;52.070;8.596;2024-02-04T02:59:00;6.10;;;3.90;;
55069;SDS011;40967;52.070;8.596;2024-02-04T03:01:28;5.57;;;3.40;;
55069;SDS011;40967;52.070;8.596;2024-02-04T03:03:55;7.03;;;4.20;;
55069;SDS011;40967;52.070;8.596;2024-02-04T03:06:21;6.57;;;4.20;;
55069;SDS011;40967;52.070;8.596;2024-02-04T03:08:48;5.33;;;3.50;;
55069;SDS011;40967;52.070;8.596;2024-02-04T03:11:15;6.50;;;4.05;;
55069;SDS011;40967;52.070;8.596;2024-02-04T03:13:41;7.40;;;4.23;;
55069;SDS011;40967;52.070;8.596;2024-02-04T03:16:09;7.28;;;4.38;;
55069;SDS011;40967;52.070;8.596;2024-02-04T03:18:38;8.20;;;4.78;;
55069;SDS011;40967;52.070;8.596;2024-02-04T03:21:11;7.63;;;4.55;;
55069;SDS011;40967;52.070;8.596;2024-02-04T03:23:38;6.03;;;3.88;;
55069;SDS011;40967;52.070;8.596;2024-02-04T03:26:06;6.28;;;3.60;;
55069;SDS011;40967;52.070;8.596;2024-02-04T03:28:32;6.90;;;4.10;;
55069;SDS011;40967;52.070;8.596;2024-02-04T03:30:59;5.57;;;3.20;;
55069;SDS011;40967;52.070;8.596;2024-02-04T03:33:25;5.75;;;3.42;;
55069;SDS011;40967;52.070;8.596;2024-02-04T03:35:53;6.22;;;3.72;;
55069;SDS011;40967;52.070;8.596;2024-02-04T03:38:20;5.80;;;3.50;;
55069;SDS011;40967;52.070;8.596;2024-02-04T03:40:46;5.13;;;3.22;;
55069;SDS011;40967;52.070;8.596;2024-02-04T03:43:14;9.97;;;5.93;;
55069;SDS011;40967;52.070;8.596;2024-02-04T03:45:41;7.05;;;4.40;;
55069;SDS011;40967;52.070;8.596;2024-02-04T03:48:07;6.93;;;4.03;;
55069;SDS011;40967;52.070;8.596;2024-02-04T03:50:35;8.65;;;5.40;;
55069;SDS011;40967;52.070;8.596;2024-02-04T03:53:03;9.35;;;4.95;;
55069;SDS011;40967;52.070;8.596;2024-02-04T03:55:29;10.27;;;5.72;;
55069;SDS011;40967;52.070;8.596;2024-02-04T03:57:56;7.80;;;4.60;;
55069;SDS011;40967;52.070;8.596;2024-02-04T04:00:23;8.15;;;5.25;;
55069;SDS011;40967;52.070;8.596;2024-02-04T04:02:52;7.68;;;5.50;;
55069;SDS011;40967;52.070;8.596;2024-02-04T04:05:19;7.65;;;5.05;;
55069;SDS011;40967;52.070;8.596;2024-02-04T04:07:45;8.10;;;5.10;;
55069;SDS011;40967;52.070;8.596;2024-02-04T04:10:13;7.10;;;4.70;;
55069;SDS011;40967;52.070;8.596;2024-02-04T04:12:40;8.50;;;5.27;;
55069;SDS011;40967;52.070;8.596;2024-02-04T04:15:06;8.45;;;5.30;;
55069;SDS011;40967;52.070;8.596;2024-02-04T04:17:33;9.70;;;6.32;;
55069;SDS011;40967;52.070;8.596;2024-02-04T04:20:00;9.88;;;6.35;;
55069;SDS011;40967;52.070;8.596;2024-02-04T04:22:26;9.73;;;5.95;;
55069;SDS011;40967;52.070;8.596;2024-02-04T04:24:53;11.43;;;7.00;;
55069;SDS011;40967;52.070;8.596;2024-02-04T04:27:21;9.43;;;6.40;;
55069;SDS011;40967;52.070;8.596;2024-02-04T04:29:47;9.37;;;5.80;;
55069;SDS011;40967;52.070;8.596;2024-02-04T04:32:16;8.38;;;5.38;;
55069;SDS011;40967;52.070;8.596;2024-02-04T04:34:42;6.93;;;5.18;;
55069;SDS011;40967;52.070;8.596;2024-02-04T04:37:09;7.35;;;5.00;;
55069;SDS011;40967;52.070;8.596;2024-02-04T04:39:35;7.75;;;4.30;;
55069;SDS011;40967;52.070;8.596;2024-02-04T04:42:02;6.45;;;3.72;;
55069;SDS011;40967;52.070;8.596;2024-02-04T04:44:30;6.30;;;3.60;;
55069;SDS011;40967;52.070;8.596;2024-02-04T04:46:59;9.25;;;3.90;;
55069;SDS011;40967;52.070;8.596;2024-02-04T04:49:26;6.00;;;3.08;;
55069;SDS011;40967;52.070;8.596;2024-02-04T04:51:52;5.73;;;3.33;;
55069;SDS011;40967;52.070;8.596;2024-02-04T04:54:19;6.25;;;3.40;;
55069;SDS011;40967;52.070;8.596;2024-02-04T04:56:45;6.18;;;2.90;;
55069;SDS011;40967;52.070;8.596;2024-02-04T04:59:12;6.18;;;2.88;;
55069;SDS011;40967;52.070;8.596;2024-02-04T05:01:45;6.03;;;2.53;;
55069;SDS011;40967;52.070;8.596;2024-02-04T05:04:15;7.03;;;3.58;;
55069;SDS011;40967;52.070;8.596;2024-02-04T05:06:43;6.80;;;4.03;;
55069;SDS011;40967;52.070;8.596;2024-02-04T05:09:10;5.43;;;3.30;;
55069;SDS011;40967;52.070;8.596;2024-02-04T05:11:36;8.55;;;3.40;;
55069;SDS011;40967;52.070;8.596;2024-02-04T05:14:03;6.85;;;3.20;;
55069;SDS011;40967;52.070;8.596;2024-02-04T05:16:29;8.32;;;3.88;;
55069;SDS011;40967;52.070;8.596;2024-02-04T05:18:57;6.60;;;3.50;;
55069;SDS011;40967;52.070;8.596;2024-02-04T05:21:24;8.67;;;5.17;;
55069;SDS011;40967;52.070;8.596;2024-02-04T05:23:56;10.20;;;5.25;;
55069;SDS011;40967;52.070;8.596;2024-02-04T05:26:23;7.35;;;3.50;;
55069;SDS011;40967;52.070;8.596;2024-02-04T05:28:49;5.88;;;3.33;;
55069;SDS011;40967;52.070;8.596;2024-02-04T05:31:16;6.63;;;3.10;;
55069;SDS011;40967;52.070;8.596;2024-02-04T05:33:42;8.15;;;3.80;;
55069;SDS011;40967;52.070;8.596;2024-02-04T05:36:10;6.25;;;3.20;;
55069;SDS011;40967;52.070;8.596;2024-02-04T05:38:37;5.50;;;2.88;;
55069;SDS011;40967;52.070;8.596;2024-02-04T05:41:03;7.47;;;3.42;;
55069;SDS011;40967;52.070;8.596;2024-02-04T05:43:30;5.80;;;3.00;;
55069;SDS011;40967;52.070;8.596;2024-02-04T05:45:56;7.68;;;3.22;;
55069;SDS011;40967;52.070;8.596;2024-02-04T05:48:23;7.15;;;3.20;;
55069;SDS011;40967;52.070;8.596;2024-02-04T05:50:49;5.97;;;2.85;;
55069;SDS011;40967;52.070;8.596;2024-02-04T05:53:17;5.88;;;2.60;;
55069;SDS011;40967;52.070;8.596;2024-02-04T05:55:44;7.13;;;3.10;;
55069;SDS011;40967;52.070;8.596;2024-02-04T05:58:10;6.30;;;2.70;;
55069;SDS011;40967;52.070;8.596;2024-02-04T06:00:38;6.33;;;2.80;;
55069;SDS011;40967;52.070;8.596;2024-02-04T06:03:05;4.88;;;2.50;;
55069;SDS011;40967;52.070;8.596;2024-02-04T06:05:32;6.32;;;2.40;;
55069;SDS011;40967;52.070;8.596;2024-02-04T06:07:58;6.63;;;2.47;;
55069;SDS011;40967;52.070;8.596;2024-02-04T06:10:33;5.55;;;2.20;;
55069;SDS011;40967;52.070;8.596;2024-02-04T06:13:02;6.00;;;2.33;;
55069;SDS011;40967;52.070;8.596;2024-02-04T06:15:28;5.32;;;1.98;;
55069;SDS011;40967;52.070;8.596;2024-02-04T06:17:55;8.13;;;2.10;;
55069;SDS011;40967;52.070;8.596;2024-02-04T06:20:22;3.45;;;1.60;;
55069;SDS011;40967;52.070;8.596;2024-02-04T06:22:48;5.90;;;1.88;;
55069;SDS011;40967;52.070;8.596;2024-02-04T06:25:15;5.63;;;2.00;;
55069;SDS011;40967;52.070;8.596;2024-02-04T06:27:43;7.35;;;2.08;;
55069;SDS011;40967;52.070;8.596;2024-02-04T06:30:10;6.57;;;2.50;;
55069;SDS011;40967;52.070;8.596;2024-02-04T06:32:37;6.35;;;2.15;;
55069;SDS011;40967;52.070;8.596;2024-02-04T06:35:04;5.75;;;1.77;;
55069;SDS011;40967;52.070;8.596;2024-02-04T06:37:31;6.55;;;1.90;;
55069;SDS011;40967;52.070;8.596;2024-02-04T06:39:58;3.20;;;1.40;;
55069;SDS011;40967;52.070;8.596;2024-02-04T06:42:24;5.70;;;1.67;;
55069;SDS011;40967;52.070;8.596;2024-02-04T06:44:54;4.18;;;1.50;;
55069;SDS011;40967;52.070;8.596;2024-02-04T06:47:21;6.03;;;1.65;;
55069;SDS011;40967;52.070;8.596;2024-02-04T06:49:48;7.25;;;1.80;;
55069;SDS011;40967;52.070;8.596;2024-02-04T06:52:20;4.72;;;1.63;;
55069;SDS011;40967;52.070;8.596;2024-02-04T06:54:46;4.83;;;1.77;;
55069;SDS011;40967;52.070;8.596;2024-02-04T06:57:13;7.22;;;2.20;;
55069;SDS011;40967;52.070;8.596;2024-02-04T06:59:45;6.10;;;2.45;;
55069;SDS011;40967;52.070;8.596;2024-02-04T07:02:13;6.53;;;2.30;;
55069;SDS011;40967;52.070;8.596;2024-02-04T07:04:42;5.20;;;1.90;;
55069;SDS011;40967;52.070;8.596;2024-02-04T07:07:09;6.30;;;2.35;;
55069;SDS011;40967;52.070;8.596;2024-02-04T07:09:35;4.70;;;2.30;;
55069;SDS011;40967;52.070;8.596;2024-02-04T07:12:02;7.63;;;2.50;;
55069;SDS011;40967;52.070;8.596;2024-02-04T07:14:31;6.65;;;2.85;;
55069;SDS011;40967;52.070;8.596;2024-02-04T07:17:16;9.07;;;3.10;;
55069;SDS011;40967;52.070;8.596;2024-02-04T07:19:46;5.75;;;2.42;;
55069;SDS011;40967;52.070;8.596;2024-02-04T07:22:14;6.73;;;2.80;;
55069;SDS011;40967;52.070;8.596;2024-02-04T07:24:40;7.47;;;2.92;;
55069;SDS011;40967;52.070;8.596;2024-02-04T07:27:13;9.60;;;3.63;;
55069;SDS011;40967;52.070;8.596;2024-02-04T07:32:30;6.72;;;3.00;;
55069;SDS011;40967;52.070;8.596;2024-02-04T07:35:00;9.67;;;3.90;;
55069;SDS011;40967;52.070;8.596;2024-02-04T07:37:33;7.47;;;3.50;;
55069;SDS011;40967;52.070;8.596;2024-02-04T07:40:01;8.00;;;3.22;;
55069;SDS011;40967;52.070;8.596;2024-02-04T07:42:58;8.55;;;2.90;;
55069;SDS011;40967;52.070;8.596;2024-02-04T07:45:34;7.80;;;2.50;;
55069;SDS011;40967;52.070;8.596;2024-02-04T07:48:08;7.78;;;2.30;;
55069;SDS011;40967;52.070;8.596;2024-02-04T07:50:41;8.13;;;2.30;;
55069;SDS011;40967;52.070;8.596;2024-02-04T07:53:10;8.47;;;2.53;;
55069;SDS011;40967;52.070;8.596;2024-02-04T07:55:39;7.80;;;2.55;;
55069;SDS011;40967;52.070;8.596;2024-02-04T07:58:13;9.03;;;2.80;;
55069;SDS011;40967;52.070;8.596;2024-02-04T08:01:19;5.93;;;2.30;;
55069;SDS011;40967;52.070;8.596;2024-02-04T08:04:32;7.50;;;2.55;;
55069;SDS011;40967;52.070;8.596;2024-02-04T08:07:11;6.60;;;2.20;;
55069;SDS011;40967;52.070;8.596;2024-02-04T08:10:24;8.88;;;2.75;;
55069;SDS011;40967;52.070;8.596;2024-02-04T08:12:55;7.07;;;2.30;;
55069;SDS011;40967;52.070;8.596;2024-02-04T08:15:35;5.88;;;2.20;;
55069;SDS011;40967;52.070;8.596;2024-02-04T08:18:17;9.32;;;2.72;;
55069;SDS011;40967;52.070;8.596;2024-02-04T08:21:03;8.95;;;2.55;;
55069;SDS011;40967;52.070;8.596;2024-02-04T08:23:33;8.02;;;2.42;;
55069;SDS011;40967;52.070;8.596;2024-02-04T08:26:08;9.00;;;2.53;;
55069;SDS011;40967;52.070;8.596;2024-02-04T08:28:57;10.77;;;2.00;;
55069;SDS011;40967;52.070;8.596;2024-02-04T08:31:27;7.75;;;1.70;;
55069;SDS011;40967;52.070;8.596;2024-02-04T08:34:08;4.72;;;1.65;;
55069;SDS011;40967;52.070;8.596;2024-02-04T08:36:51;6.45;;;1.65;;
55069;SDS011;40967;52.070;8.596;2024-02-04T08:39:31;8.15;;;1.67;;
55069;SDS011;40967;52.070;8.596;2024-02-04T08:42:22;9.25;;;1.88;;
55069;SDS011;40967;52.070;8.596;2024-02-04T08:44:51;6.75;;;1.70;;
55069;SDS011;40967;52.070;8.596;2024-02-04T08:47:20;8.50;;;2.10;;
55069;SDS011;40967;52.070;8.596;2024-02-04T08:49:49;5.97;;;1.60;;
55069;SDS011;40967;52.070;8.596;2024-02-04T08:52:19;4.78;;;1.52;;
55069;SDS011;40967;52.070;8.596;2024-02-04T08:54:45;9.85;;;2.40;;
55069;SDS011;40967;52.070;8.596;2024-02-04T08:57:12;7.10;;;2.03;;
55069;SDS011;40967;52.070;8.596;2024-02-04T08:59:42;8.05;;;1.88;;
55069;SDS011;40967;52.070;8.596;2024-02-04T09:02:09;6.00;;;1.60;;
55069;SDS011;40967;52.070;8.596;2024-02-04T09:04:38;11.75;;;2.40;;
55069;SDS011;40967;52.070;8.596;2024-02-04T09:07:06;7.38;;;1.83;;
55069;SDS011;40967;52.070;8.596;2024-02-04T09:09:34;11.77;;;2.50;;
55069;SDS011;40967;52.070;8.596;2024-02-04T09:12:07;9.73;;;2.35;;
55069;SDS011;40967;52.070;8.596;2024-02-04T09:14:36;7.97;;;1.90;;
55069;SDS011;40967;52.070;8.596;2024-02-04T09:17:02;5.07;;;1.30;;
55069;SDS011;40967;52.070;8.596;2024-02-04T09:19:30;7.30;;;1.52;;
55069;SDS011;40967;52.070;8.596;2024-02-04T09:21:56;4.55;;;1.23;;
55069;SDS011;40967;52.070;8.596;2024-02-04T09:24:23;6.67;;;1.73;;
55069;SDS011;40967;52.070;8.596;2024-02-04T09:26:58;5.28;;;1.50;;
55069;SDS011;40967;52.070;8.596;2024-02-04T09:29:25;8.35;;;1.77;;
55069;SDS011;40967;52.070;8.596;2024-02-04T09:32:02;4.28;;;1.15;;
55069;SDS011;40967;52.070;8.596;2024-02-04T09:34:31;7.55;;;1.88;;
55069;SDS011;40967;52.070;8.596;2024-02-04T09:36:57;10.05;;;1.60;;
55069;SDS011;40967;52.070;8.596;2024-02-04T09:39:35;4.70;;;1.40;;
55069;SDS011;40967;52.070;8.596;2024-02-04T09:42:03;8.27;;;1.92;;
55069;SDS011;40967;52.070;8.596;2024-02-04T09:44:31;7.23;;;1.80;;
55069;SDS011;40967;52.070;8.596;2024-02-04T09:47:09;6.30;;;1.77;;
55069;SDS011;40967;52.070;8.596;2024-02-04T09:49:50;4.88;;;1.40;;
55069;SDS011;40967;52.070;8.596;2024-02-04T09:52:25;8.75;;;1.60;;
55069;SDS011;40967;52.070;8.596;2024-02-04T09:58:32;7.55;;;2.10;;
55069;SDS011;40967;52.070;8.596;2024-02-04T10:01:02;6.53;;;1.50;;
55069;SDS011;40967;52.070;8.596;2024-02-04T10:03:35;7.72;;;2.35;;
55069;SDS011;40967;52.070;8.596;2024-02-04T10:08:49;7.45;;;1.67;;
55069;SDS011;40967;52.070;8.596;2024-02-04T10:11:18;7.60;;;1.90;;
55069;SDS011;40967;52.070;8.596;2024-02-04T10:13:49;6.43;;;1.73;;
55069;SDS011;40967;52.070;8.596;2024-02-04T10:16:48;8.55;;;2.05;;
55069;SDS011;40967;52.070;8.596;2024-02-04T10:22:03;6.30;;;2.53;;
55069;SDS011;40967;52.070;8.596;2024-02-04T10:24:33;9.30;;;2.08;;
55069;SDS011;40967;52.070;8.596;2024-02-04T10:30:24;5.53;;;2.25;;
55069;SDS011;40967;52.070;8.596;2024-02-04T10:33:01;7.07;;;2.13;;
55069;SDS011;40967;52.070;8.596;2024-02-04T10:35:28;5.90;;;1.80;;
55069;SDS011;40967;52.070;8.596;2024-02-04T10:38:03;4.80;;;1.63;;
55069;SDS011;40967;52.070;8.596;2024-02-04T10:40:31;7.82;;;2.30;;
55069;SDS011;40967;52.070;8.596;2024-02-04T10:43:03;5.57;;;1.80;;
55069;SDS011;40967;52.070;8.596;2024-02-04T10:48:55;8.18;;;2.03;;
55069;SDS011;40967;52.070;8.596;2024-02-04T10:51:38;5.55;;;1.92;;
55069;SDS011;40967;52.070;8.596;2024-02-04T10:54:08;6.60;;;2.33;;
55069;SDS011;40967;52.070;8.596;2024-02-04T10:56:50;7.88;;;1.90;;
55069;SDS011;40967;52.070;8.596;2024-02-04T10:59:58;6.40;;;1.88;;
55069;SDS011;40967;52.070;8.596;2024-02-04T11:02:36;7.07;;;2.22;;
55069;SDS011;40967;52.070;8.596;2024-02-04T11:05:07;6.15;;;1.83;;
55069;SDS011;40967;52.070;8.596;2024-02-04T11:07:39;6.77;;;2.63;;
55069;SDS011;40967;52.070;8.596;2024-02-04T11:10:08;6.10;;;1.80;;
55069;SDS011;40967;52.070;8.596;2024-02-04T11:12:44;5.70;;;1.85;;
55069;SDS011;40967;52.070;8.596;2024-02-04T11:15:12;4.40;;;1.90;;
55069;SDS011;40967;52.070;8.596;2024-02-04T11:18:06;3.65;;;1.40;;
55069;SDS011;40967;52.070;8.596;2024-02-04T11:21:16;5.63;;;2.00;;
55069;SDS011;40967;52.070;8.596;2024-02-04T11:24:08;5.57;;;1.77;;
55069;SDS011;40967;52.070;8.596;2024-02-04T11:29:33;5.33;;;1.80;;
55069;SDS011;40967;52.070;8.596;2024-02-04T11:32:21;5.30;;;1.80;;
55069;SDS011;40967;52.070;8.596;2024-02-04T11:35:01;4.82;;;1.85;;
55069;SDS011;40967;52.070;8.596;2024-02-04T11:37:32;7.45;;;2.03;;
55069;SDS011;40967;52.070;8.596;2024-02-04T11:40:00;6.80;;;2.47;;
55069;SDS011;40967;52.070;8.596;2024-02-04T11:42:44;4.65;;;1.80;;
55069;SDS011;40967;52.070;8.596;2024-02-04T11:45:13;5.30;;;2.13;;
55069;SDS011;40967;52.070;8.596;2024-02-04T11:47:42;3.97;;;1.58;;
55069;SDS011;40967;52.070;8.596;2024-02-04T11:50:23;9.98;;;4.15;;
55069;SDS011;40967;52.070;8.596;2024-02-04T11:53:12;5.40;;;3.10;;
55069;SDS011;40967;52.070;8.596;2024-02-04T11:55:44;7.38;;;2.95;;
55069;SDS011;40967;52.070;8.596;2024-02-04T11:58:25;8.27;;;3.55;;
55069;SDS011;40967;52.070;8.596;2024-02-04T12:01:11;6.13;;;2.75;;
55069;SDS011;40967;52.070;8.596;2024-02-04T12:03:53;5.63;;;2.40;;
55069;SDS011;40967;52.070;8.596;2024-02-04T12:06:39;6.35;;;3.10;;
55069;SDS011;40967;52.070;8.596;2024-02-04T12:09:23;6.33;;;3.20;;
55069;SDS011;40967;52.070;8.596;2024-02-04T12:12:01;6.13;;;3.42;;
55069;SDS011;40967;52.070;8.596;2024-02-04T12:14:29;8.65;;;3.58;;
55069;SDS011;40967;52.070;8.596;2024-02-04T12:16:59;5.35;;;2.83;;
55069;SDS011;40967;52.070;8.596;2024-02-04T12:20:24;5.05;;;2.60;;
55069;SDS011;40967;52.070;8.596;2024-02-04T12:23:01;6.07;;;2.85;;
55069;SDS011;40967;52.070;8.596;2024-02-04T12:25:32;4.83;;;2.77;;
55069;SDS011;40967;52.070;8.596;2024-02-04T12:31:16;8.15;;;3.72;;
55069;SDS011;40967;52.070;8.596;2024-02-04T12:33:53;7.75;;;3.67;;
55069;SDS011;40967;52.070;8.596;2024-02-04T12:36:22;6.53;;;3.42;;
55069;SDS011;40967;52.070;8.596;2024-02-04T12:38:54;6.35;;;3.45;;
55069;SDS011;40967;52.070;8.596;2024-02-04T12:44:35;7.57;;;4.40;;
55069;SDS011;40967;52.070;8.596;2024-02-04T12:47:04;10.05;;;4.40;;
55069;SDS011;40967;52.070;8.596;2024-02-04T12:49:31;8.40;;;4.17;;
55069;SDS011;40967;52.070;8.596;2024-02-04T12:58:13;5.40;;;2.90;;
55069;SDS011;40967;52.070;8.596;2024-02-04T13:00:59;6.60;;;3.60;;
55069;SDS011;40967;52.070;8.596;2024-02-04T13:03:26;7.53;;;4.13;;
55069;SDS011;40967;52.070;8.596;2024-02-04T13:06:01;7.55;;;3.58;;
55069;SDS011;40967;52.070;8.596;2024-02-04T13:08:42;8.23;;;3.97;;
55069;SDS011;40967;52.070;8.596;2024-02-04T13:14:14;6.43;;;3.60;;
55069;SDS011;40967;52.070;8.596;2024-02-04T13:16:50;6.75;;;3.78;;
55069;SDS011;40967;52.070;8.596;2024-02-04T13:19:40;10.55;;;5.05;;
55069;SDS011;40967;52.070;8.596;2024-02-04T13:22:13;5.95;;;4.07;;
55069;SDS011;40967;52.070;8.596;2024-02-04T13:24:43;6.30;;;3.95;;
55069;SDS011;40967;52.070;8.596;2024-02-04T13:34:21;9.48;;;4.25;;
55069;SDS011;40967;52.070;8.596;2024-02-04T13:36:48;6.00;;;3.47;;
55069;SDS011;40967;52.070;8.596;2024-02-04T13:39:23;9.00;;;4.15;;
55069;SDS011;40967;52.070;8.596;2024-02-04T13:42:14;7.65;;;3.92;;
55069;SDS011;40967;52.070;8.596;2024-02-04T13:45:00;10.20;;;4.75;;
55069;SDS011;40967;52.070;8.596;2024-02-04T13:47:30;9.37;;;5.40;;
55069;SDS011;40967;52.070;8.596;2024-02-04T13:49:58;6.95;;;4.00;;
55069;SDS011;40967;52.070;8.596;2024-02-04T13:52:25;8.00;;;4.03;;
55069;SDS011;40967;52.070;8.596;2024-02-04T13:54:51;7.97;;;3.92;;
55069;SDS011;40967;52.070;8.596;2024-02-04T13:57:18;7.00;;;3.85;;
55069;SDS011;40967;52.070;8.596;2024-02-04T13:59:45;6.85;;;3.30;;
55069;SDS011;40967;52.070;8.596;2024-02-04T14:02:11;6.05;;;3.20;;
55069;SDS011;40967;52.070;8.596;2024-02-04T14:04:41;5.97;;;3.10;;
55069;SDS011;40967;52.070;8.596;2024-02-04T14:07:15;4.57;;;2.55;;
55069;SDS011;40967;52.070;8.596;2024-02-04T14:09:41;6.80;;;2.60;;
55069;SDS011;40967;52.070;8.596;2024-02-04T14:12:08;5.95;;;2.25;;
55069;SDS011;40967;52.070;8.596;2024-02-04T14:17:21;5.07;;;2.00;;
55069;SDS011;40967;52.070;8.596;2024-02-04T14:19:48;5.32;;;2.00;;
55069;SDS011;40967;52.070;8.596;2024-02-04T14:22:18;4.95;;;2.65;;
55069;SDS011;40967;52.070;8.596;2024-02-04T14:24:47;6.60;;;2.43;;
55069;SDS011;40967;52.070;8.596;2024-02-04T14:27:17;6.87;;;2.80;;
55069;SDS011;40967;52.070;8.596;2024-02-04T14:30:04;7.00;;;2.83;;
55069;SDS011;40967;52.070;8.596;2024-02-04T14:32:35;7.15;;;2.58;;
55069;SDS011;40967;52.070;8.596;2024-02-04T14:35:06;5.93;;;2.60;;
55069;SDS011;40967;52.070;8.596;2024-02-04T14:40:36;12.70;;;4.78;;
55069;SDS011;40967;52.070;8.596;2024-02-04T14:43:03;13.95;;;6.05;;
55069;SDS011;40967;52.070;8.596;2024-02-04T14:45:29;9.20;;;4.03;;
55069;SDS011;40967;52.070;8.596;2024-02-04T14:47:56;9.18;;;4.05;;
55069;SDS011;40967;52.070;8.596;2024-02-04T14:50:23;5.97;;;2.90;;
55069;SDS011;40967;52.070;8.596;2024-02-04T14:52:49;5.88;;;2.70;;
55069;SDS011;40967;52.070;8.596;2024-02-04T14:55:18;6.00;;;2.55;;
55069;SDS011;40967;52.070;8.596;2024-02-04T14:57:45;5.90;;;2.47;;
55069;SDS011;40967;52.070;8.596;2024-02-04T15:00:21;4.57;;;1.95;;
55069;SDS011;40967;52.070;8.596;2024-02-04T15:02:53;6.85;;;2.13;;
55069;SDS011;40967;52.070;8.596;2024-02-04T15:05:30;5.88;;;2.17;;
55069;SDS011;40967;52.070;8.596;2024-02-04T15:07:56;7.55;;;2.40;;
55069;SDS011;40967;52.070;8.596;2024-02-04T15:10:24;10.15;;;3.28;;
55069;SDS011;40967;52.070;8.596;2024-02-04T15:12:51;7.93;;;3.30;;
55069;SDS011;40967;52.070;8.596;2024-02-04T15:18:03;6.53;;;2.72;;
55069;SDS011;40967;52.070;8.596;2024-02-04T15:20:31;7.38;;;2.72;;
55069;SDS011;40967;52.070;8.596;2024-02-04T15:23:02;4.50;;;2.03;;
55069;SDS011;40967;52.070;8.596;2024-02-04T15:25:35;4.10;;;1.60;;
55069;SDS011;40967;52.070;8.596;2024-02-04T15:28:03;5.57;;;2.10;;
55069;SDS011;40967;52.070;8.596;2024-02-04T15:30:44;4.70;;;2.25;;
55069;SDS011;40967;52.070;8.596;2024-02-04T15:33:12;6.63;;;2.63;;
55069;SDS011;40967;52.070;8.596;2024-02-04T15:35:53;6.03;;;2.38;;
55069;SDS011;40967;52.070;8.596;2024-02-04T15:38:22;7.45;;;3.30;;
55069;SDS011;40967;52.070;8.596;2024-02-04T15:40:53;6.10;;;3.10;;
55069;SDS011;40967;52.070;8.596;2024-02-04T15:43:43;5.05;;;2.25;;
55069;SDS011;40967;52.070;8.596;2024-02-04T15:46:12;4.22;;;2.28;;
55069;SDS011;40967;52.070;8.596;2024-02-04T15:48:52;4.95;;;2.17;;
55069;SDS011;40967;52.070;8.596;2024-02-04T15:51:19;3.87;;;2.17;;
55069;SDS011;40967;52.070;8.596;2024-02-04T15:53:46;3.30;;;1.90;;
55069;SDS011;40967;52.070;8.596;2024-02-04T15:56:15;4.60;;;2.35;;
55069;SDS011;40967;52.070;8.596;2024-02-04T15:58:46;4.95;;;2.47;;
55069;SDS011;40967;52.070;8.596;2024-02-04T16:01:16;5.32;;;2.50;;
55069;SDS011;40967;52.070;8.596;2024-02-04T16:03:46;5.53;;;2.80;;